sensor_id;sensor_type;location;lat;lon;timestamp;pressure;altitude;pressure_sealevel;temperature;humidity
62524;BME280;53689;56.878;60.672;2023-03-31T00:00:23;99426.25;;;19.97;19.92
62524;BME280;53689;56.878;60.672;2023-03-31T00:02:50;99421.19;;;19.94;19.55
62524;BME280;53689;56.878;60.672;2023-03-31T00:05:19;99418.50;;;19.94;19.73
62524;BME280;53689;56.878;60.672;2023-03-31T00:07:47;99413.25;;;19.92;19.27
62524;BME280;53689;56.878;60.672;2023-03-31T00:10:14;99418.78;;;19.91;18.96
62524;BME280;53689;56.878;60.672;2023-03-31T00:12:44;99418.78;;;19.91;18.96
62524;BME280;53689;56.878;60.672;2023-03-31T00:15:11;99414.09;;;19.93;19.38
62524;BME280;53689;56.878;60.672;2023-03-31T00:17:39;99409.03;;;19.90;19.54
62524;BME280;53689;56.878;60.672;2023-03-31T00:20:06;99410.22;;;19.87;18.88
62524;BME280;53689;56.878;60.672;2023-03-31T00:22:35;99407.69;;;19.86;18.86
62524;BME280;53689;56.878;60.672;2023-03-31T00:25:02;99405.81;;;19.86;19.70
62524;BME280;53689;56.878;60.672;2023-03-31T00:27:30;99410.22;;;19.87;19.31
62524;BME280;53689;56.878;60.672;2023-03-31T00:29:57;99400.91;;;19.81;19.68
62524;BME280;53689;56.878;60.672;2023-03-31T00:32:24;99404.31;;;19.83;19.90
62524;BME280;53689;56.878;60.672;2023-03-31T00:34:51;99409.31;;;19.78;19.54
62524;BME280;53689;56.878;60.672;2023-03-31T00:37:19;99414.81;;;19.77;19.95
62524;BME280;53689;56.878;60.672;2023-03-31T00:39:47;99401.56;;;19.75;20.10
62524;BME280;53689;56.878;60.672;2023-03-31T00:42:14;99396.88;;;19.77;19.88
62524;BME280;53689;56.878;60.672;2023-03-31T00:47:23;99394.66;;;19.73;19.97
62524;BME280;53689;56.878;60.672;2023-03-31T00:49:53;99386.91;;;19.69;19.88
62524;BME280;53689;56.878;60.672;2023-03-31T00:52:21;99389.75;;;19.68;19.99
62524;BME280;53689;56.878;60.672;2023-03-31T00:54:52;99397.13;;;19.66;19.18
62524;BME280;53689;56.878;60.672;2023-03-31T00:57:21;99392.28;;;19.69;19.12
62524;BME280;53689;56.878;60.672;2023-03-31T00:59:50;99386.69;;;19.63;19.46
62524;BME280;53689;56.878;60.672;2023-03-31T01:02:19;99390.69;;;19.59;19.75
62524;BME280;53689;56.878;60.672;2023-03-31T01:04:47;99383.31;;;19.61;19.91
62524;BME280;53689;56.878;60.672;2023-03-31T01:07:17;99389.03;;;19.58;19.06
62524;BME280;53689;56.878;60.672;2023-03-31T01:09:51;99386.69;;;19.63;19.77
62524;BME280;53689;56.878;60.672;2023-03-31T01:12:19;99389.03;;;19.58;19.99
62524;BME280;53689;56.878;60.672;2023-03-31T01:14:47;99384.31;;;19.60;20.11
62524;BME280;53689;56.878;60.672;2023-03-31T01:19:49;99386.28;;;19.49;20.13
62524;BME280;53689;56.878;60.672;2023-03-31T01:22:24;99388.63;;;19.52;20.06
62524;BME280;53689;56.878;60.672;2023-03-31T01:25:20;99391.50;;;19.51;19.74
62524;BME280;53689;56.878;60.672;2023-03-31T01:28:03;99387.28;;;19.48;19.95
62524;BME280;53689;56.878;60.672;2023-03-31T01:30:51;99385.28;;;19.50;19.75
62524;BME280;53689;56.878;60.672;2023-03-31T01:36:15;99379.34;;;19.20;19.76
62524;BME280;53689;56.878;60.672;2023-03-31T01:41:43;99383.09;;;19.27;19.59
62524;BME280;53689;56.878;60.672;2023-03-31T01:44:15;99385.59;;;19.47;19.57
62524;BME280;53689;56.878;60.672;2023-03-31T01:46:45;99380.91;;;19.49;19.96
62524;BME280;53689;56.878;60.672;2023-03-31T01:49:19;99378.47;;;19.38;19.22
62524;BME280;53689;56.878;60.672;2023-03-31T01:51:50;99381.09;;;19.30;19.44
62524;BME280;53689;56.878;60.672;2023-03-31T01:54:18;99387.53;;;19.37;20.00
62524;BME280;53689;56.878;60.672;2023-03-31T01:56:48;99389.44;;;19.45;19.57
62524;BME280;53689;56.878;60.672;2023-03-31T01:59:18;99386.06;;;19.43;19.58
62524;BME280;53689;56.878;60.672;2023-03-31T02:01:49;99388.22;;;19.39;19.83
62524;BME280;53689;56.878;60.672;2023-03-31T02:04:19;99388.88;;;19.41;19.68
62524;BME280;53689;56.878;60.672;2023-03-31T02:06:50;99383.44;;;19.51;19.45
62524;BME280;53689;56.878;60.672;2023-03-31T02:09:19;99380.97;;;19.58;19.29
62524;BME280;53689;56.878;60.672;2023-03-31T02:11:50;99385.78;;;19.80;19.67
62524;BME280;53689;56.878;60.672;2023-03-31T02:14:18;99377.41;;;20.53;18.84
62524;BME280;53689;56.878;60.672;2023-03-31T02:16:47;99394.91;;;20.57;19.00
62524;BME280;53689;56.878;60.672;2023-03-31T02:19:17;99386.53;;;20.77;18.27
62524;BME280;53689;56.878;60.672;2023-03-31T02:21:45;99384.91;;;19.72;19.65
62524;BME280;53689;56.878;60.672;2023-03-31T02:24:14;99384.75;;;19.73;19.78
62524;BME280;53689;56.878;60.672;2023-03-31T02:26:43;99391.28;;;19.71;19.51
62524;BME280;53689;56.878;60.672;2023-03-31T02:29:17;99390.63;;;19.50;19.89
62524;BME280;53689;56.878;60.672;2023-03-31T02:31:45;99376.38;;;19.50;19.48
62524;BME280;53689;56.878;60.672;2023-03-31T02:34:13;99380.28;;;19.55;19.48
62524;BME280;53689;56.878;60.672;2023-03-31T02:36:41;99384.81;;;19.55;20.04
62524;BME280;53689;56.878;60.672;2023-03-31T02:39:10;99381.44;;;19.53;19.79
62524;BME280;53689;56.878;60.672;2023-03-31T02:41:38;99382.91;;;19.47;19.41
62524;BME280;53689;56.878;60.672;2023-03-31T02:44:05;99387.81;;;19.52;19.42
62524;BME280;53689;56.878;60.672;2023-03-31T02:46:34;99385.28;;;19.50;20.22
62524;BME280;53689;56.878;60.672;2023-03-31T02:49:02;99382.72;;;19.49;19.48
62524;BME280;53689;56.878;60.672;2023-03-31T02:57:25;99384.59;;;19.48;19.96
62524;BME280;53689;56.878;60.672;2023-03-31T03:00:01;99388.97;;;19.49;19.70
62524;BME280;53689;56.878;60.672;2023-03-31T03:02:42;99386.88;;;19.43;20.43
62524;BME280;53689;56.878;60.672;2023-03-31T03:05:20;99392.84;;;19.55;20.24
62524;BME280;53689;56.878;60.672;2023-03-31T03:08:31;99387.28;;;19.48;20.80
62524;BME280;53689;56.878;60.672;2023-03-31T03:11:02;99386.81;;;19.53;20.69
62524;BME280;53689;56.878;60.672;2023-03-31T03:13:33;99384.78;;;19.81;20.90
62524;BME280;53689;56.878;60.672;2023-03-31T03:16:02;99387.94;;;19.68;20.54
62524;BME280;53689;56.878;60.672;2023-03-31T03:18:34;99379.75;;;19.78;20.69
62524;BME280;53689;56.878;60.672;2023-03-31T03:21:02;99377.63;;;19.90;20.63
62524;BME280;53689;56.878;60.672;2023-03-31T03:23:29;99376.91;;;19.80;20.02
62524;BME280;53689;56.878;60.672;2023-03-31T03:25:57;99387.75;;;19.70;20.96
62524;BME280;53689;56.878;60.672;2023-03-31T03:28:24;99386.28;;;19.76;20.81
62524;BME280;53689;56.878;60.672;2023-03-31T03:30:51;99381.63;;;19.86;20.23
62524;BME280;53689;56.878;60.672;2023-03-31T03:33:19;99373.38;;;19.79;20.27
62524;BME280;53689;56.878;60.672;2023-03-31T03:35:50;99374.56;;;19.85;20.63
62524;BME280;53689;56.878;60.672;2023-03-31T03:38:17;99374.56;;;19.85;20.10
62524;BME280;53689;56.878;60.672;2023-03-31T03:40:45;99371.81;;;19.95;20.47
62524;BME280;53689;56.878;60.672;2023-03-31T03:43:16;99376.72;;;20.00;19.83
62524;BME280;53689;56.878;60.672;2023-03-31T03:45:46;99381.22;;;19.99;19.77
62524;BME280;53689;56.878;60.672;2023-03-31T03:48:14;99363.66;;;20.13;20.39
62524;BME280;53689;56.878;60.672;2023-03-31T03:50:41;99369.41;;;19.92;20.67
62524;BME280;53689;56.878;60.672;2023-03-31T03:53:10;99369.00;;;19.78;20.39
62524;BME280;53689;56.878;60.672;2023-03-31T03:55:39;99358.16;;;19.88;20.33
62524;BME280;53689;56.878;60.672;2023-03-31T03:58:07;99356.81;;;19.92;20.23
62524;BME280;53689;56.878;60.672;2023-03-31T04:00:35;99369.53;;;19.82;20.61
62524;BME280;53689;56.878;60.672;2023-03-31T04:03:03;99360.66;;;19.90;20.89
62524;BME280;53689;56.878;60.672;2023-03-31T04:05:31;99363.34;;;19.90;21.03
62524;BME280;53689;56.878;60.672;2023-03-31T04:07:59;99358.78;;;19.82;20.61
62524;BME280;53689;56.878;60.672;2023-03-31T04:10:29;99365.00;;;19.82;20.70
62524;BME280;53689;56.878;60.672;2023-03-31T04:12:57;99354.56;;;19.79;20.49
62524;BME280;53689;56.878;60.672;2023-03-31T04:15:24;99354.25;;;19.82;21.58
62524;BME280;53689;56.878;60.672;2023-03-31T04:17:51;99349.44;;;19.94;20.98
62524;BME280;53689;56.878;60.672;2023-03-31T04:20:19;99355.28;;;19.90;20.37
62524;BME280;53689;56.878;60.672;2023-03-31T04:22:47;99353.03;;;19.77;20.30
62524;BME280;53689;56.878;60.672;2023-03-31T04:25:15;99342.53;;;19.92;20.41
62524;BME280;53689;56.878;60.672;2023-03-31T04:27:45;99349.91;;;19.90;20.95
62524;BME280;53689;56.878;60.672;2023-03-31T04:30:13;99349.59;;;19.93;21.03
62524;BME280;53689;56.878;60.672;2023-03-31T04:32:41;99335.78;;;19.88;21.22
62524;BME280;53689;56.878;60.672;2023-03-31T04:35:09;99349.66;;;20.01;20.74
62524;BME280;53689;56.878;60.672;2023-03-31T04:37:37;99343.69;;;19.89;20.44
62524;BME280;53689;56.878;60.672;2023-03-31T04:40:05;99344.19;;;19.85;21.36
62524;BME280;53689;56.878;60.672;2023-03-31T04:42:33;99341.69;;;19.91;20.54
62524;BME280;53689;56.878;60.672;2023-03-31T04:45:02;99334.44;;;19.83;20.54
62524;BME280;53689;56.878;60.672;2023-03-31T04:47:29;99337.09;;;19.75;20.80
62524;BME280;53689;56.878;60.672;2023-03-31T04:49:57;99346.06;;;19.92;20.42
62524;BME280;53689;56.878;60.672;2023-03-31T04:52:24;99343.84;;;19.88;20.99
62524;BME280;53689;56.878;60.672;2023-03-31T04:54:52;99349.59;;;19.93;20.48
62524;BME280;53689;56.878;60.672;2023-03-31T04:57:20;99344.00;;;19.86;21.16
62524;BME280;53689;56.878;60.672;2023-03-31T04:59:47;99348.88;;;19.82;20.77
62524;BME280;53689;56.878;60.672;2023-03-31T05:02:17;99343.53;;;19.91;20.59
62524;BME280;53689;56.878;60.672;2023-03-31T05:04:45;99344.13;;;19.76;20.81
62524;BME280;53689;56.878;60.672;2023-03-31T05:07:13;99344.47;;;19.81;21.21
62524;BME280;53689;56.878;60.672;2023-03-31T05:09:41;99346.19;;;19.82;21.43
62524;BME280;53689;56.878;60.672;2023-03-31T05:12:08;99338.44;;;19.79;21.15
62524;BME280;53689;56.878;60.672;2023-03-31T05:14:36;99349.03;;;19.81;20.60
62524;BME280;53689;56.878;60.672;2023-03-31T05:17:03;99336.75;;;19.78;20.43
62524;BME280;53689;56.878;60.672;2023-03-31T05:19:33;99339.09;;;19.81;20.57
62524;BME280;53689;56.878;60.672;2023-03-31T05:22:00;99341.38;;;19.94;21.11
62524;BME280;53689;56.878;60.672;2023-03-31T05:24:28;99344.53;;;19.90;21.39
62524;BME280;53689;56.878;60.672;2023-03-31T05:26:57;99343.81;;;19.79;21.54
62524;BME280;53689;56.878;60.672;2023-03-31T05:29:25;99342.50;;;19.83;21.44
62524;BME280;53689;56.878;60.672;2023-03-31T05:31:53;99336.13;;;19.85;20.94
62524;BME280;53689;56.878;60.672;2023-03-31T05:34:21;99336.88;;;19.95;20.89
62524;BME280;53689;56.878;60.672;2023-03-31T05:36:50;99341.97;;;19.80;21.01
62524;BME280;53689;56.878;60.672;2023-03-31T05:39:17;99338.63;;;19.86;20.72
62524;BME280;53689;56.878;60.672;2023-03-31T05:41:46;99345.19;;;19.83;21.20
62524;BME280;53689;56.878;60.672;2023-03-31T05:44:13;99336.13;;;19.85;21.37
62524;BME280;53689;56.878;60.672;2023-03-31T05:46:42;99336.66;;;19.88;21.21
62524;BME280;53689;56.878;60.672;2023-03-31T05:49:10;99351.38;;;19.84;21.17
62524;BME280;53689;56.878;60.672;2023-03-31T05:51:38;99335.03;;;19.69;21.01
62524;BME280;53689;56.878;60.672;2023-03-31T05:54:07;99335.44;;;19.82;21.38
62524;BME280;53689;56.878;60.672;2023-03-31T05:56:35;99333.31;;;19.94;22.23
62524;BME280;53689;56.878;60.672;2023-03-31T05:59:02;99325.72;;;19.90;20.68
62524;BME280;53689;56.878;60.672;2023-03-31T06:01:32;99325.84;;;19.80;21.52
62524;BME280;53689;56.878;60.672;2023-03-31T06:03:59;99324.75;;;19.64;21.04
62524;BME280;53689;56.878;60.672;2023-03-31T06:06:27;99312.84;;;19.67;21.52
62524;BME280;53689;56.878;60.672;2023-03-31T06:08:54;99306.41;;;19.60;21.32
62524;BME280;53689;56.878;60.672;2023-03-31T06:11:24;99309.34;;;19.75;20.77
62524;BME280;53689;56.878;60.672;2023-03-31T06:13:52;99311.84;;;19.68;21.15
62524;BME280;53689;56.878;60.672;2023-03-31T06:16:19;99307.16;;;19.70;20.81
62524;BME280;53689;56.878;60.672;2023-03-31T06:18:46;99308.06;;;19.79;20.54
62524;BME280;53689;56.878;60.672;2023-03-31T06:21:15;99312.91;;;19.75;20.35
62524;BME280;53689;56.878;60.672;2023-03-31T06:23:43;99304.16;;;19.81;21.00
62524;BME280;53689;56.878;60.672;2023-03-31T06:26:11;99296.22;;;19.63;21.23
62524;BME280;53689;56.878;60.672;2023-03-31T06:28:41;99294.38;;;19.72;20.71
62524;BME280;53689;56.878;60.672;2023-03-31T06:31:09;99295.91;;;19.75;20.57
62524;BME280;53689;56.878;60.672;2023-03-31T06:33:38;99304.31;;;19.72;20.90
62524;BME280;53689;56.878;60.672;2023-03-31T06:36:06;99304.63;;;19.68;19.96
62524;BME280;53689;56.878;60.672;2023-03-31T06:38:35;99300.63;;;19.73;20.68
62524;BME280;53689;56.878;60.672;2023-03-31T06:41:04;99295.16;;;19.91;20.78
62524;BME280;53689;56.878;60.672;2023-03-31T06:43:32;99294.06;;;20.02;20.96
62524;BME280;53689;56.878;60.672;2023-03-31T06:46:01;99295.06;;;20.01;20.62
62524;BME280;53689;56.878;60.672;2023-03-31T06:48:28;99284.16;;;20.10;21.24
62524;BME280;53689;56.878;60.672;2023-03-31T06:50:57;99281.63;;;20.01;20.78
62524;BME280;53689;56.878;60.672;2023-03-31T06:53:25;99287.34;;;20.06;20.95
62524;BME280;53689;56.878;60.672;2023-03-31T06:56:01;99278.75;;;19.94;20.14
62524;BME280;53689;56.878;60.672;2023-03-31T06:58:29;99279.34;;;19.88;20.80
62524;BME280;53689;56.878;60.672;2023-03-31T07:00:58;99270.97;;;19.91;20.42
62524;BME280;53689;56.878;60.672;2023-03-31T07:03:27;99275.63;;;19.80;20.78
62524;BME280;53689;56.878;60.672;2023-03-31T07:05:54;99270.09;;;19.82;20.96
62524;BME280;53689;56.878;60.672;2023-03-31T07:08:23;99274.88;;;19.96;21.16
62524;BME280;53689;56.878;60.672;2023-03-31T07:10:53;99272.03;;;19.98;20.68
62524;BME280;53689;56.878;60.672;2023-03-31T07:13:21;99258.53;;;19.90;20.68
62524;BME280;53689;56.878;60.672;2023-03-31T07:15:49;99250.53;;;19.98;21.09
62524;BME280;53689;56.878;60.672;2023-03-31T07:18:17;99267.13;;;19.93;21.28
62524;BME280;53689;56.878;60.672;2023-03-31T07:20:48;99239.38;;;19.85;20.78
62524;BME280;53689;56.878;60.672;2023-03-31T07:23:16;99244.63;;;19.60;20.21
62524;BME280;53689;56.878;60.672;2023-03-31T07:25:45;99242.09;;;19.23;20.14
62524;BME280;53689;56.878;60.672;2023-03-31T07:28:12;99231.94;;;19.09;19.70
62524;BME280;53689;56.878;60.672;2023-03-31T07:30:40;99236.25;;;19.02;19.01
62524;BME280;53689;56.878;60.672;2023-03-31T07:33:07;99232.00;;;18.72;18.58
62524;BME280;53689;56.878;60.672;2023-03-31T07:35:36;99238.31;;;18.90;18.94
62524;BME280;53689;56.878;60.672;2023-03-31T07:38:06;99241.56;;;19.20;18.16
62524;BME280;53689;56.878;60.672;2023-03-31T07:40:33;99229.78;;;19.39;18.67
62524;BME280;53689;56.878;60.672;2023-03-31T07:43:01;99231.34;;;19.50;19.01
62524;BME280;53689;56.878;60.672;2023-03-31T07:45:28;99237.81;;;19.74;18.76
62524;BME280;53689;56.878;60.672;2023-03-31T07:47:56;99218.16;;;19.65;19.42
62524;BME280;53689;56.878;60.672;2023-03-31T07:50:23;99224.91;;;19.77;19.75
62524;BME280;53689;56.878;60.672;2023-03-31T07:52:53;99227.47;;;19.87;19.68
62524;BME280;53689;56.878;60.672;2023-03-31T07:55:22;99232.50;;;19.90;20.05
62524;BME280;53689;56.878;60.672;2023-03-31T07:57:49;99207.28;;;19.83;20.02
62524;BME280;53689;56.878;60.672;2023-03-31T08:00:17;99201.81;;;19.23;19.26
62524;BME280;53689;56.878;60.672;2023-03-31T08:02:46;99215.72;;;19.19;19.76
62524;BME280;53689;56.878;60.672;2023-03-31T08:05:14;99204.59;;;19.40;18.76
62524;BME280;53689;56.878;60.672;2023-03-31T08:07:43;99205.28;;;19.42;18.89
62524;BME280;53689;56.878;60.672;2023-03-31T08:10:12;99201.94;;;19.48;19.35
62524;BME280;53689;56.878;60.672;2023-03-31T08:12:40;99206.69;;;19.63;18.74
62524;BME280;53689;56.878;60.672;2023-03-31T08:15:08;99213.41;;;19.59;19.15
62524;BME280;53689;56.878;60.672;2023-03-31T08:17:36;99203.09;;;19.46;19.00
62524;BME280;53689;56.878;60.672;2023-03-31T08:20:04;99195.91;;;19.46;19.70
62524;BME280;53689;56.878;60.672;2023-03-31T08:22:33;99206.84;;;19.53;19.29
62524;BME280;53689;56.878;60.672;2023-03-31T08:25:01;99196.78;;;19.55;20.07
62524;BME280;53689;56.878;60.672;2023-03-31T08:27:31;99200.66;;;19.61;19.23
62524;BME280;53689;56.878;60.672;2023-03-31T08:30:02;99199.34;;;19.65;19.05
62524;BME280;53689;56.878;60.672;2023-03-31T08:32:31;99188.38;;;19.58;19.79
62524;BME280;53689;56.878;60.672;2023-03-31T08:34:59;99204.25;;;19.78;19.39
62524;BME280;53689;56.878;60.672;2023-03-31T08:37:26;99202.38;;;19.70;19.39
62524;BME280;53689;56.878;60.672;2023-03-31T08:39:55;99200.19;;;19.74;19.48
62524;BME280;53689;56.878;60.672;2023-03-31T08:42:25;99198.00;;;19.69;19.59
62524;BME280;53689;56.878;60.672;2023-03-31T08:44:57;99193.16;;;19.73;19.57
62524;BME280;53689;56.878;60.672;2023-03-31T08:47:28;99198.53;;;19.73;19.09
62524;BME280;53689;56.878;60.672;2023-03-31T08:49:58;99191.84;;;19.42;20.32
62524;BME280;53689;56.878;60.672;2023-03-31T08:52:28;99191.50;;;19.02;19.31
62524;BME280;53689;56.878;60.672;2023-03-31T08:55:00;99191.47;;;18.39;19.43
62524;BME280;53689;56.878;60.672;2023-03-31T08:57:31;99195.31;;;18.55;18.58
62524;BME280;53689;56.878;60.672;2023-03-31T09:00:03;99191.88;;;18.89;17.91
62524;BME280;53689;56.878;60.672;2023-03-31T09:02:33;99190.06;;;19.24;18.04
62524;BME280;53689;56.878;60.672;2023-03-31T09:05:09;99183.88;;;19.24;18.39
62524;BME280;53689;56.878;60.672;2023-03-31T09:07:44;99182.75;;;19.35;18.41
62524;BME280;53689;56.878;60.672;2023-03-31T09:10:27;99180.47;;;19.48;19.56
62524;BME280;53689;56.878;60.672;2023-03-31T09:12:58;99190.66;;;19.36;19.03
62524;BME280;53689;56.878;60.672;2023-03-31T09:15:27;99179.94;;;19.45;19.15
62524;BME280;53689;56.878;60.672;2023-03-31T09:17:57;99176.09;;;19.47;19.27
62524;BME280;53689;56.878;60.672;2023-03-31T09:20:29;99178.81;;;19.55;19.73
62524;BME280;53689;56.878;60.672;2023-03-31T09:22:59;99174.13;;;19.58;19.61
62524;BME280;53689;56.878;60.672;2023-03-31T09:25:27;99170.56;;;19.49;19.39
62524;BME280;53689;56.878;60.672;2023-03-31T09:27:57;99164.19;;;19.50;19.68
62524;BME280;53689;56.878;60.672;2023-03-31T09:30:27;99164.19;;;19.58;19.27
62524;BME280;53689;56.878;60.672;2023-03-31T09:33:02;99167.06;;;19.57;20.93
62524;BME280;53689;56.878;60.672;2023-03-31T09:35:32;99157.16;;;19.57;19.21
62524;BME280;53689;56.878;60.672;2023-03-31T09:38:00;99162.41;;;19.67;19.46
62524;BME280;53689;56.878;60.672;2023-03-31T09:40:28;99152.00;;;19.64;19.62
62524;BME280;53689;56.878;60.672;2023-03-31T09:42:57;99164.72;;;19.62;19.34
62524;BME280;53689;56.878;60.672;2023-03-31T09:45:25;99153.66;;;19.65;19.89
62524;BME280;53689;56.878;60.672;2023-03-31T09:47:54;99153.97;;;19.62;19.92
62524;BME280;53689;56.878;60.672;2023-03-31T09:50:25;99153.81;;;19.63;19.84
62524;BME280;53689;56.878;60.672;2023-03-31T09:52:54;99146.63;;;19.64;19.85
62524;BME280;53689;56.878;60.672;2023-03-31T09:55:23;99148.78;;;19.60;19.00
62524;BME280;53689;56.878;60.672;2023-03-31T09:58:07;99145.63;;;19.73;19.29
62524;BME280;53689;56.878;60.672;2023-03-31T10:00:35;99148.59;;;19.62;19.36
62524;BME280;53689;56.878;60.672;2023-03-31T10:03:03;99144.91;;;19.63;19.37
62524;BME280;53689;56.878;60.672;2023-03-31T10:05:33;99141.56;;;19.61;19.73
62524;BME280;53689;56.878;60.672;2023-03-31T10:08:12;99151.28;;;19.62;19.71
62524;BME280;53689;56.878;60.672;2023-03-31T10:10:43;99148.59;;;19.62;19.46
62524;BME280;53689;56.878;60.672;2023-03-31T10:13:12;99138.19;;;19.59;21.17
62524;BME280;53689;56.878;60.672;2023-03-31T10:15:42;99135.97;;;19.97;20.16
62524;BME280;53689;56.878;60.672;2023-03-31T10:18:12;99145.94;;;19.70;20.29
62524;BME280;53689;56.878;60.672;2023-03-31T10:20:44;99138.72;;;19.62;20.38
62524;BME280;53689;56.878;60.672;2023-03-31T10:23:15;99125.78;;;19.66;19.96
62524;BME280;53689;56.878;60.672;2023-03-31T10:25:44;99126.13;;;19.71;19.14
62524;BME280;53689;56.878;60.672;2023-03-31T10:28:14;99117.03;;;19.55;19.99
62524;BME280;53689;56.878;60.672;2023-03-31T10:30:46;99121.94;;;19.60;18.87
62524;BME280;53689;56.878;60.672;2023-03-31T10:33:15;99111.84;;;19.62;19.67
62524;BME280;53689;56.878;60.672;2023-03-31T10:35:53;99106.78;;;19.51;19.45
62524;BME280;53689;56.878;60.672;2023-03-31T10:38:23;99098.56;;;19.61;19.60
62524;BME280;53689;56.878;60.672;2023-03-31T10:40:53;99089.47;;;19.53;19.88
62524;BME280;53689;56.878;60.672;2023-03-31T10:43:24;99092.22;;;19.70;19.37
62524;BME280;53689;56.878;60.672;2023-03-31T10:45:54;99095.25;;;19.75;21.42
62524;BME280;53689;56.878;60.672;2023-03-31T10:48:23;99094.59;;;19.73;20.20
62524;BME280;53689;56.878;60.672;2023-03-31T10:50:53;99095.25;;;19.67;20.16
62524;BME280;53689;56.878;60.672;2023-03-31T10:53:21;99085.03;;;19.79;19.99
62524;BME280;53689;56.878;60.672;2023-03-31T10:55:55;99091.56;;;19.85;20.12
62524;BME280;53689;56.878;60.672;2023-03-31T10:58:30;99088.09;;;20.09;19.07
62524;BME280;53689;56.878;60.672;2023-03-31T11:01:03;99083.88;;;20.23;19.92
62524;BME280;53689;56.878;60.672;2023-03-31T11:03:48;99089.44;;;20.21;19.71
62524;BME280;53689;56.878;60.672;2023-03-31T11:06:23;99086.75;;;20.30;20.02
62524;BME280;53689;56.878;60.672;2023-03-31T11:08:55;99083.03;;;20.47;19.86
62524;BME280;53689;56.878;60.672;2023-03-31T11:11:37;99081.84;;;20.50;20.11
62524;BME280;53689;56.878;60.672;2023-03-31T11:14:11;99087.25;;;20.33;20.42
62524;BME280;53689;56.878;60.672;2023-03-31T11:16:43;99084.53;;;20.42;20.26
62524;BME280;53689;56.878;60.672;2023-03-31T11:19:21;99077.50;;;20.41;20.40
62524;BME280;53689;56.878;60.672;2023-03-31T11:21:55;99063.19;;;20.32;20.22
62524;BME280;53689;56.878;60.672;2023-03-31T11:24:29;99064.56;;;20.36;20.47
62524;BME280;53689;56.878;60.672;2023-03-31T11:27:02;99066.38;;;20.35;20.30
62524;BME280;53689;56.878;60.672;2023-03-31T11:29:34;99071.00;;;20.75;19.90
62524;BME280;53689;56.878;60.672;2023-03-31T11:32:15;99076.34;;;21.00;19.66
62524;BME280;53689;56.878;60.672;2023-03-31T11:34:51;99072.38;;;20.71;19.76
62524;BME280;53689;56.878;60.672;2023-03-31T11:37:26;99059.78;;;20.63;19.61
62524;BME280;53689;56.878;60.672;2023-03-31T11:40:03;99055.09;;;20.48;20.01
62524;BME280;53689;56.878;60.672;2023-03-31T11:42:33;99049.88;;;20.47;19.72
62524;BME280;53689;56.878;60.672;2023-03-31T11:45:10;99045.84;;;20.59;20.22
62524;BME280;53689;56.878;60.672;2023-03-31T11:47:41;99047.69;;;20.59;19.73
62524;BME280;53689;56.878;60.672;2023-03-31T11:50:10;99047.84;;;20.57;20.38
62524;BME280;53689;56.878;60.672;2023-03-31T11:52:40;99049.22;;;20.53;20.42
62524;BME280;53689;56.878;60.672;2023-03-31T11:55:11;99042.16;;;20.52;20.48
62524;BME280;53689;56.878;60.672;2023-03-31T11:57:41;99037.66;;;20.36;20.91
62524;BME280;53689;56.878;60.672;2023-03-31T12:00:14;99040.41;;;20.68;19.86
62524;BME280;53689;56.878;60.672;2023-03-31T12:02:45;99039.91;;;20.72;20.03
62524;BME280;53689;56.878;60.672;2023-03-31T12:05:15;99019.19;;;20.81;19.73
62524;BME280;53689;56.878;60.672;2023-03-31T12:07:46;99026.13;;;20.75;20.36
62524;BME280;53689;56.878;60.672;2023-03-31T12:10:18;99022.75;;;20.73;19.91
62524;BME280;53689;56.878;60.672;2023-03-31T12:12:49;99027.97;;;20.75;19.81
62524;BME280;53689;56.878;60.672;2023-03-31T12:15:20;99009.84;;;21.09;19.53
62524;BME280;53689;56.878;60.672;2023-03-31T12:17:51;99015.94;;;21.02;19.39
62524;BME280;53689;56.878;60.672;2023-03-31T12:20:24;99021.28;;;21.11;19.37
62524;BME280;53689;56.878;60.672;2023-03-31T12:22:55;99018.00;;;21.24;19.25
62524;BME280;53689;56.878;60.672;2023-03-31T12:25:28;99009.00;;;21.08;19.05
62524;BME280;53689;56.878;60.672;2023-03-31T12:28:01;99006.06;;;20.86;19.98
62524;BME280;53689;56.878;60.672;2023-03-31T12:30:32;99008.03;;;21.01;20.24
62524;BME280;53689;56.878;60.672;2023-03-31T12:33:02;99007.63;;;21.12;19.83
62524;BME280;53689;56.878;60.672;2023-03-31T12:35:34;99011.72;;;21.08;19.08
62524;BME280;53689;56.878;60.672;2023-03-31T12:38:14;99015.06;;;21.10;19.43
62524;BME280;53689;56.878;60.672;2023-03-31T12:40:49;99023.66;;;21.05;20.15
62524;BME280;53689;56.878;60.672;2023-03-31T12:43:32;99013.91;;;21.04;19.97
62524;BME280;53689;56.878;60.672;2023-03-31T12:46:08;99013.03;;;21.12;19.14
62524;BME280;53689;56.878;60.672;2023-03-31T12:48:46;99002.22;;;21.20;19.57
62524;BME280;53689;56.878;60.672;2023-03-31T12:51:19;99010.41;;;20.96;19.39
62524;BME280;53689;56.878;60.672;2023-03-31T12:53:56;99014.28;;;21.01;19.68
62524;BME280;53689;56.878;60.672;2023-03-31T12:56:29;99014.44;;;21.00;19.39
62524;BME280;53689;56.878;60.672;2023-03-31T12:59:20;99004.66;;;21.07;19.35
62524;BME280;53689;56.878;60.672;2023-03-31T13:04:34;98998.69;;;20.80;20.95
62524;BME280;53689;56.878;60.672;2023-03-31T13:07:02;98985.97;;;21.05;19.79
62524;BME280;53689;56.878;60.672;2023-03-31T13:09:49;98992.22;;;21.06;19.65
62524;BME280;53689;56.878;60.672;2023-03-31T13:12:19;98984.53;;;20.86;19.94
62524;BME280;53689;56.878;60.672;2023-03-31T13:14:47;98994.63;;;20.92;19.42
62524;BME280;53689;56.878;60.672;2023-03-31T13:17:25;98989.16;;;21.09;19.35
62524;BME280;53689;56.878;60.672;2023-03-31T13:19:55;98993.09;;;21.21;19.05
62524;BME280;53689;56.878;60.672;2023-03-31T13:28:03;98991.38;;;21.29;18.97
62524;BME280;53689;56.878;60.672;2023-03-31T13:30:46;98989.41;;;21.23;19.28